Time;durP1;ratioP1;P1;durP2;ratioP2;P2;SDS_P1;SDS_P2;PMS_P1;PMS_P2;Temp;Humidity;BMP_temperature;BMP_pressure;BME280_temperature;BME280_humidity;BME280_pressure;Samples;Min_cycle;Max_cycle;Signal;HPM_P1;HPM_P2
2023/04/21 00:01:22;;;;;;;15.50;8.85;;;5.90;99.90;;;;;;5001923;28;20052;-83
2023/04/21 00:03:49;;;;;;;15.95;8.68;;;5.90;99.90;;;;;;5002513;28;20039;-83
2023/04/21 00:06:21;;;;;;;15.27;8.77;;;5.70;99.90;;;;;;5002811;28;20038;-83
2023/04/21 00:08:47;;;;;;;14.95;8.40;;;5.70;99.90;;;;;;5003200;28;20122;-83
2023/04/21 00:11:13;;;;;;;15.55;8.65;;;5.80;99.90;;;;;;5002836;28;20026;-83
2023/04/21 00:13:39;;;;;;;12.20;7.30;;;5.90;99.90;;;;;;5002273;28;20113;-83
2023/04/21 00:16:05;;;;;;;14.45;8.68;;;5.90;99.90;;;;;;5002188;28;20072;-83
2023/04/21 00:18:37;;;;;;;14.77;9.25;;;5.90;99.90;;;;;;5003283;28;20039;-83
2023/04/21 00:21:03;;;;;;;15.13;8.63;;;5.90;99.90;;;;;;5003373;28;20030;-83
2023/04/21 00:23:28;;;;;;;17.40;9.07;;;5.90;99.90;;;;;;5002215;28;20058;-83
2023/04/21 00:25:54;;;;;;;15.15;9.05;;;5.90;99.90;;;;;;5002905;28;20015;-83
2023/04/21 00:28:20;;;;;;;16.20;9.32;;;5.90;99.90;;;;;;5005198;28;20382;-83
2023/04/21 00:30:45;;;;;;;16.30;8.93;;;6.00;99.90;;;;;;5005189;28;20026;-83
2023/04/21 00:33:11;;;;;;;15.93;9.07;;;6.00;99.90;;;;;;5005718;28;20030;-83
2023/04/21 00:35:36;;;;;;;16.05;9.63;;;6.00;99.90;;;;;;5006798;28;20030;-83
2023/04/21 00:38:02;;;;;;;19.40;10.35;;;6.00;99.90;;;;;;5006384;28;20034;-82
2023/04/21 00:40:28;;;;;;;17.33;9.70;;;6.00;99.90;;;;;;5006646;28;20065;-82
2023/04/21 00:42:53;;;;;;;13.65;8.50;;;6.00;99.90;;;;;;5006685;28;20053;-83
2023/04/21 00:45:19;;;;;;;16.02;9.02;;;6.00;99.90;;;;;;5006474;28;20513;-82
2023/04/21 00:47:44;;;;;;;16.30;9.57;;;6.00;99.90;;;;;;5006126;28;20027;-82
2023/04/21 00:50:11;;;;;;;19.30;9.30;;;6.10;99.90;;;;;;5007072;28;20042;-82
2023/04/21 00:52:39;;;;;;;15.95;9.93;;;6.00;99.90;;;;;;5005903;28;20058;-83
2023/04/21 00:55:06;;;;;;;16.00;9.15;;;6.00;99.90;;;;;;5005768;28;20037;-83
2023/04/21 00:57:31;;;;;;;17.05;10.52;;;6.10;99.90;;;;;;5006219;28;20489;-83
2023/04/21 00:59:57;;;;;;;17.85;9.68;;;6.00;99.90;;;;;;5006551;28;20027;-85
2023/04/21 01:02:23;;;;;;;16.23;9.27;;;6.00;99.90;;;;;;5006956;28;20038;-84
2023/04/21 01:04:49;;;;;;;18.42;9.80;;;6.10;99.90;;;;;;5006566;28;20065;-83
2023/04/21 01:07:14;;;;;;;15.93;9.25;;;6.10;99.90;;;;;;5006213;28;20018;-84
2023/04/21 01:09:40;;;;;;;18.17;10.05;;;6.10;99.90;;;;;;5005639;28;20025;-84
2023/04/21 01:12:07;;;;;;;15.32;8.98;;;6.10;99.90;;;;;;5006687;28;20029;-84
2023/04/21 01:14:33;;;;;;;19.00;10.23;;;6.00;99.90;;;;;;5006080;28;20023;-83
2023/04/21 01:16:58;;;;;;;19.13;10.70;;;6.00;99.90;;;;;;5005027;28;20041;-84
2023/04/21 01:19:25;;;;;;;17.13;9.07;;;6.00;99.90;;;;;;5006595;28;20026;-84
2023/04/21 01:21:56;;;;;;;17.25;10.13;;;6.00;99.90;;;;;;5005913;28;20358;-84
2023/04/21 01:24:23;;;;;;;18.70;9.60;;;6.00;99.90;;;;;;5005980;28;20068;-83
2023/04/21 01:26:49;;;;;;;15.10;9.27;;;6.10;99.90;;;;;;5006169;28;20057;-84
2023/04/21 01:29:15;;;;;;;17.65;9.88;;;6.20;99.90;;;;;;5006051;28;20058;-83
2023/04/21 01:31:42;;;;;;;16.40;9.68;;;6.20;99.90;;;;;;5005248;28;20038;-84
2023/04/21 01:34:08;;;;;;;19.83;10.07;;;6.10;99.90;;;;;;5005769;28;20034;-84
2023/04/21 01:36:35;;;;;;;17.40;9.77;;;6.10;99.90;;;;;;5005527;28;20105;-83
2023/04/21 01:39:02;;;;;;;17.00;10.02;;;6.10;99.90;;;;;;5005259;28;20026;-84
2023/04/21 01:41:27;;;;;;;17.73;10.10;;;6.10;99.90;;;;;;5006111;28;20098;-84
2023/04/21 01:43:53;;;;;;;18.35;10.05;;;6.10;99.90;;;;;;5006026;28;20058;-84
2023/04/21 01:46:19;;;;;;;18.13;9.65;;;6.00;99.90;;;;;;5005824;28;20026;-84
2023/04/21 01:48:49;;;;;;;19.38;10.32;;;6.00;99.90;;;;;;5005843;28;20027;-84
2023/04/21 01:51:14;;;;;;;20.15;10.38;;;6.00;99.90;;;;;;5005170;28;20090;-84
2023/04/21 01:53:40;;;;;;;20.83;10.70;;;6.00;99.90;;;;;;5005301;28;20062;-84
2023/04/21 01:56:06;;;;;;;21.10;10.55;;;6.00;99.90;;;;;;5005383;28;20196;-84
2023/04/21 01:58:31;;;;;;;22.40;11.00;;;5.90;99.90;;;;;;5005491;28;20129;-84
2023/04/21 02:00:57;;;;;;;20.02;10.13;;;5.90;99.90;;;;;;5004377;28;20038;-84
2023/04/21 02:03:22;;;;;;;18.40;10.30;;;6.00;99.90;;;;;;5005285;28;20038;-84
2023/04/21 02:05:49;;;;;;;19.20;9.68;;;6.00;99.90;;;;;;5005654;28;20014;-85
2023/04/21 02:08:16;;;;;;;20.33;10.48;;;6.00;99.90;;;;;;5005142;28;20045;-84
2023/04/21 02:10:41;;;;;;;21.88;9.77;;;6.00;99.90;;;;;;5005505;28;20030;-84
2023/04/21 02:13:07;;;;;;;20.80;10.05;;;6.00;99.90;;;;;;5005442;28;20030;-84
2023/04/21 02:15:33;;;;;;;24.30;10.52;;;6.00;99.90;;;;;;5003263;28;20035;-84
2023/04/21 02:17:59;;;;;;;20.50;10.88;;;6.00;99.90;;;;;;5004952;28;20037;-84
2023/04/21 02:20:25;;;;;;;21.35;11.57;;;6.00;99.90;;;;;;5006564;28;20026;-84
2023/04/21 02:22:50;;;;;;;22.38;11.07;;;6.00;99.90;;;;;;5006411;28;20062;-84
2023/04/21 02:25:16;;;;;;;23.70;12.73;;;6.00;99.90;;;;;;5004821;28;20089;-84
2023/04/21 02:27:41;;;;;;;22.92;11.25;;;6.00;99.90;;;;;;5004773;28;20085;-84
2023/04/21 02:30:08;;;;;;;20.35;11.07;;;6.00;99.90;;;;;;5004372;28;20034;-84
2023/04/21 02:32:33;;;;;;;22.25;11.13;;;6.00;99.90;;;;;;5004293;28;20035;-84
2023/04/21 02:34:59;;;;;;;20.45;11.18;;;6.00;99.90;;;;;;5004654;28;20467;-85
2023/04/21 02:37:25;;;;;;;18.30;9.80;;;6.00;99.90;;;;;;5005291;28;20038;-84
2023/04/21 02:39:51;;;;;;;19.52;9.80;;;6.00;99.90;;;;;;5007042;28;20034;-84
2023/04/21 02:42:16;;;;;;;21.48;10.18;;;6.00;99.90;;;;;;5007001;28;20080;-84
2023/04/21 02:44:42;;;;;;;20.42;10.10;;;6.00;99.90;;;;;;5008097;28;20031;-84
2023/04/21 02:47:07;;;;;;;18.73;10.27;;;6.00;99.90;;;;;;5007250;28;20053;-84
2023/04/21 02:49:33;;;;;;;18.65;10.65;;;6.00;99.90;;;;;;5004262;28;20030;-84
2023/04/21 02:51:58;;;;;;;19.65;9.70;;;5.90;99.90;;;;;;5005129;28;20489;-84
2023/04/21 02:54:24;;;;;;;20.42;11.27;;;5.80;99.90;;;;;;5003701;28;20053;-84
2023/04/21 02:56:50;;;;;;;19.65;9.65;;;5.70;99.90;;;;;;5004001;28;20498;-84
2023/04/21 02:59:15;;;;;;;19.02;10.32;;;5.80;99.90;;;;;;5004425;28;20011;-84
2023/04/21 03:01:41;;;;;;;22.10;10.52;;;5.70;99.90;;;;;;5003450;28;20039;-84
2023/04/21 03:04:07;;;;;;;23.77;11.10;;;5.60;99.90;;;;;;5004643;28;20422;-84
2023/04/21 03:06:33;;;;;;;21.58;10.80;;;5.60;99.90;;;;;;5003718;28;20046;-83
2023/04/21 03:08:58;;;;;;;24.08;10.32;;;5.60;99.90;;;;;;5003202;28;20030;-84
2023/04/21 03:11:24;;;;;;;22.00;10.02;;;5.50;99.90;;;;;;5004027;28;20034;-84
2023/04/21 03:13:49;;;;;;;21.25;10.48;;;5.50;99.90;;;;;;5004254;28;20033;-84
2023/04/21 03:16:15;;;;;;;18.40;9.18;;;5.50;99.90;;;;;;5004120;28;20109;-84
2023/04/21 03:18:41;;;;;;;17.00;8.60;;;5.30;99.90;;;;;;5004293;28;20046;-84
2023/04/21 03:21:13;;;;;;;19.48;10.05;;;5.30;99.90;;;;;;5003867;28;20052;-84
2023/04/21 03:23:38;;;;;;;22.08;10.20;;;5.30;99.90;;;;;;5004764;28;20502;-84
2023/04/21 03:26:07;;;;;;;20.65;10.90;;;5.40;99.90;;;;;;5003906;28;20034;-84
2023/04/21 03:28:33;;;;;;;16.52;9.15;;;5.40;99.90;;;;;;5003283;28;20039;-84
2023/04/21 03:30:58;;;;;;;19.48;10.30;;;5.30;99.90;;;;;;4984880;28;20030;-84
2023/04/21 03:33:24;;;;;;;20.33;9.70;;;5.30;99.90;;;;;;5003598;28;20053;-84
2023/04/21 03:35:50;;;;;;;22.13;10.73;;;5.40;99.90;;;;;;5003361;28;20038;-84
2023/04/21 03:38:15;;;;;;;18.20;10.02;;;5.40;99.90;;;;;;5003542;28;20117;-83
2023/04/21 03:40:41;;;;;;;18.92;10.57;;;5.40;99.90;;;;;;5003946;28;20090;-84
2023/04/21 03:43:07;;;;;;;18.17;9.63;;;5.40;99.90;;;;;;5003190;28;20034;-84
2023/04/21 03:45:34;;;;;;;19.83;9.95;;;5.50;99.90;;;;;;5002857;28;20042;-84
2023/04/21 03:47:59;;;;;;;45.85;11.75;;;5.50;99.90;;;;;;5002847;28;20034;-84
2023/04/21 03:50:25;;;;;;;23.00;10.82;;;5.50;99.90;;;;;;5002754;28;20033;-84
2023/04/21 03:52:51;;;;;;;23.40;11.13;;;5.40;99.90;;;;;;5004597;28;20086;-83
2023/04/21 03:55:16;;;;;;;20.10;10.90;;;5.40;99.90;;;;;;5002217;28;20095;-84
2023/04/21 03:57:42;;;;;;;20.55;10.95;;;5.40;99.90;;;;;;5002661;28;20066;-84
2023/04/21 04:00:09;;;;;;;22.75;12.13;;;5.50;99.90;;;;;;5002606;28;20030;-84
2023/04/21 04:02:35;;;;;;;25.45;11.43;;;5.60;99.90;;;;;;5004874;28;20038;-84
2023/04/21 04:05:02;;;;;;;24.25;12.20;;;5.60;99.90;;;;;;5005514;28;20384;-84
2023/04/21 04:07:28;;;;;;;25.25;12.63;;;5.60;99.90;;;;;;5006483;28;20077;-83
2023/04/21 04:09:54;;;;;;;21.80;10.75;;;5.60;99.90;;;;;;5005831;28;20027;-84
2023/04/21 04:12:19;;;;;;;23.38;11.93;;;5.60;99.90;;;;;;5006229;28;20490;-84
2023/04/21 04:14:45;;;;;;;25.88;11.93;;;5.60;99.90;;;;;;5005976;28;20470;-83
2023/04/21 04:17:10;;;;;;;21.98;10.77;;;5.70;99.90;;;;;;5006281;28;20049;-84
2023/04/21 04:19:36;;;;;;;22.65;10.30;;;5.70;99.90;;;;;;5006480;28;20034;-84
2023/04/21 04:22:02;;;;;;;45.10;13.55;;;5.70;99.90;;;;;;5006283;28;20030;-84
2023/04/21 04:24:32;;;;;;;95.32;18.05;;;5.60;99.90;;;;;;5007229;28;20065;-84
2023/04/21 04:26:58;;;;;;;130.60;19.25;;;5.40;99.90;;;;;;5004645;28;20053;-84
2023/04/21 04:29:25;;;;;;;101.15;15.60;;;5.20;99.90;;;;;;5005596;28;20034;-84
2023/04/21 04:31:51;;;;;;;135.55;18.52;;;5.20;99.90;;;;;;5005629;28;20040;-84
2023/04/21 04:34:17;;;;;;;121.07;17.75;;;5.20;99.90;;;;;;5006037;28;20074;-84
2023/04/21 04:36:43;;;;;;;31.17;11.93;;;5.10;99.90;;;;;;5006182;28;20038;-84
2023/04/21 04:39:09;;;;;;;32.42;11.55;;;5.10;99.90;;;;;;5005882;28;20049;-84
2023/04/21 04:41:36;;;;;;;226.63;25.50;;;5.20;99.90;;;;;;5005750;28;20023;-83
2023/04/21 04:44:04;;;;;;;251.20;31.63;;;5.10;99.90;;;;;;5006264;28;20054;-84
2023/04/21 04:46:30;;;;;;;130.25;20.45;;;4.90;99.90;;;;;;5004332;28;20034;-84
2023/04/21 04:48:55;;;;;;;165.45;22.38;;;4.90;99.90;;;;;;5005880;28;20030;-84
2023/04/21 04:51:22;;;;;;;129.50;21.38;;;4.80;99.90;;;;;;5005387;28;20034;-84
2023/04/21 04:53:48;;;;;;;83.72;17.38;;;4.80;99.90;;;;;;5004975;28;20113;-84
2023/04/21 04:56:13;;;;;;;131.52;21.00;;;4.80;99.90;;;;;;5005984;28;20042;-84
2023/04/21 04:58:39;;;;;;;228.68;34.22;;;4.70;99.90;;;;;;5004918;28;20030;-84
2023/04/21 05:01:15;;;;;;;175.10;28.55;;;4.70;99.90;;;;;;5003889;28;20061;-84
2023/04/21 05:03:41;;;;;;;34.53;11.88;;;4.70;99.90;;;;;;5005143;28;20045;-85
2023/04/21 05:06:07;;;;;;;58.25;14.70;;;4.90;99.90;;;;;;5003997;28;20030;-84
2023/04/21 05:08:32;;;;;;;159.88;22.27;;;5.00;99.90;;;;;;5004081;28;20084;-83
2023/04/21 05:10:58;;;;;;;115.40;19.92;;;5.00;99.90;;;;;;5005365;28;20061;-84
2023/04/21 05:13:23;;;;;;;50.75;12.02;;;4.90;99.90;;;;;;5003989;28;20030;-84
2023/04/21 05:15:49;;;;;;;67.35;14.00;;;4.90;99.90;;;;;;5006032;28;20117;-84
2023/04/21 05:18:15;;;;;;;37.05;14.52;;;5.00;99.90;;;;;;5005217;28;20069;-84
2023/04/21 05:20:41;;;;;;;22.30;10.48;;;5.10;99.90;;;;;;5004588;28;20057;-84
2023/04/21 05:23:07;;;;;;;30.55;11.95;;;5.10;99.90;;;;;;5004573;28;20058;-84
2023/04/21 05:25:32;;;;;;;19.17;10.23;;;5.10;99.90;;;;;;5005047;28;20093;-84
2023/04/21 05:27:58;;;;;;;32.05;11.60;;;5.20;99.90;;;;;;5004586;28;20022;-85
2023/04/21 05:30:24;;;;;;;24.85;11.30;;;5.30;99.90;;;;;;5005226;28;20481;-84
2023/04/21 05:32:49;;;;;;;39.85;11.15;;;5.30;99.90;;;;;;5003779;28;20041;-83
2023/04/21 05:35:15;;;;;;;35.70;11.48;;;5.30;99.90;;;;;;5004971;28;20032;-84
2023/04/21 05:37:40;;;;;;;17.45;9.52;;;5.30;99.90;;;;;;5004801;28;20073;-85
2023/04/21 05:40:06;;;;;;;29.00;10.05;;;5.40;99.90;;;;;;5005084;28;20117;-84
2023/04/21 05:42:32;;;;;;;43.30;12.60;;;5.40;99.90;;;;;;5004172;28;20030;-84
2023/04/21 05:44:58;;;;;;;36.85;12.77;;;5.40;99.90;;;;;;5004051;28;20038;-85
2023/04/21 05:47:23;;;;;;;36.53;10.05;;;5.30;99.90;;;;;;5004896;28;20031;-85
2023/04/21 05:49:52;;;;;;;60.00;13.82;;;5.40;99.90;;;;;;5004513;28;20035;-88
2023/04/21 05:52:19;;;;;;;22.98;10.18;;;5.40;99.90;;;;;;5003967;28;20017;-86
2023/04/21 05:54:45;;;;;;;39.63;13.02;;;5.40;99.90;;;;;;5004771;28;20042;-84
2023/04/21 05:57:10;;;;;;;24.92;9.73;;;5.40;99.90;;;;;;5003664;28;20053;-85
2023/04/21 05:59:36;;;;;;;49.95;14.75;;;5.40;99.90;;;;;;5003787;28;20490;-85
2023/04/21 06:02:02;;;;;;;95.20;15.85;;;5.40;99.90;;;;;;5003039;28;20046;-84
2023/04/21 06:04:28;;;;;;;58.38;12.57;;;5.30;99.90;;;;;;5004958;28;20029;-85
2023/04/21 06:06:53;;;;;;;20.92;10.25;;;5.30;99.90;;;;;;5004716;28;20391;-85
2023/04/21 06:09:19;;;;;;;27.85;9.90;;;5.30;99.90;;;;;;5004111;28;20368;-85
2023/04/21 06:11:45;;;;;;;73.47;13.93;;;5.40;99.90;;;;;;5003421;28;20038;-84
2023/04/21 06:14:10;;;;;;;106.60;16.58;;;5.30;99.90;;;;;;5004171;28;20089;-85
2023/04/21 06:16:36;;;;;;;86.57;15.05;;;5.30;99.90;;;;;;5004278;28;20569;-85
2023/04/21 06:19:01;;;;;;;102.45;16.85;;;5.20;99.90;;;;;;5003568;28;20490;-85
2023/04/21 06:21:27;;;;;;;83.15;14.95;;;5.20;99.90;;;;;;5004002;28;20403;-85
2023/04/21 06:23:52;;;;;;;74.45;17.27;;;5.20;99.90;;;;;;5002534;28;20050;-85
2023/04/21 06:26:18;;;;;;;110.13;16.20;;;5.20;99.90;;;;;;5003755;28;20026;-84
2023/04/21 06:28:44;;;;;;;68.32;16.17;;;5.20;99.90;;;;;;5003932;28;20062;-85
2023/04/21 06:31:14;;;;;;;51.78;13.73;;;5.20;99.90;;;;;;5002707;28;20037;-85
2023/04/21 06:33:40;;;;;;;56.72;13.55;;;5.20;99.90;;;;;;5004363;28;20451;-84
2023/04/21 06:36:06;;;;;;;50.15;13.80;;;5.20;99.90;;;;;;5003146;28;20030;-85
2023/04/21 06:38:32;;;;;;;72.82;15.20;;;5.20;99.90;;;;;;5003058;28;20471;-85
2023/04/21 06:40:57;;;;;;;58.45;15.90;;;5.20;99.90;;;;;;5003283;28;20030;-85
2023/04/21 06:43:23;;;;;;;56.08;14.68;;;5.20;99.90;;;;;;5002772;28;20061;-85
2023/04/21 06:45:49;;;;;;;76.35;14.50;;;5.30;99.90;;;;;;5002762;28;20038;-85
2023/04/21 06:48:14;;;;;;;51.97;14.45;;;5.20;99.90;;;;;;5003445;28;20015;-85
2023/04/21 06:50:43;;;;;;;60.53;14.35;;;5.30;99.90;;;;;;5003313;28;20062;-84
2023/04/21 06:53:10;;;;;;;29.38;12.45;;;5.30;99.90;;;;;;5002990;28;20053;-85
2023/04/21 06:55:35;;;;;;;58.05;12.48;;;5.40;99.90;;;;;;5003156;28;20097;-85
2023/04/21 06:58:01;;;;;;;21.35;11.15;;;5.40;99.90;;;;;;5001935;28;20112;-84
2023/04/21 07:00:27;;;;;;;22.63;11.30;;;5.50;99.90;;;;;;5003249;28;20039;-85
2023/04/21 07:02:52;;;;;;;64.95;13.60;;;5.60;99.90;;;;;;5001500;28;20097;-85
2023/04/21 07:05:18;;;;;;;40.90;12.00;;;5.50;99.90;;;;;;5001448;28;20031;-85
2023/04/21 07:07:44;;;;;;;15.73;9.55;;;5.60;99.90;;;;;;5002804;28;20034;-85
2023/04/21 07:10:09;;;;;;;16.58;8.65;;;5.60;99.90;;;;;;5003247;28;20448;-85
2023/04/21 07:12:35;;;;;;;40.17;10.98;;;5.70;99.90;;;;;;5003439;28;20407;-86
2023/04/21 07:15:00;;;;;;;30.13;11.35;;;5.70;99.90;;;;;;5003474;28;20034;-84
2023/04/21 07:17:26;;;;;;;23.08;9.93;;;5.60;99.90;;;;;;5002844;28;20045;-85
2023/04/21 07:19:52;;;;;;;36.63;10.93;;;5.70;99.90;;;;;;5003600;28;20026;-85
2023/04/21 07:22:17;;;;;;;42.28;13.65;;;5.70;99.90;;;;;;5004592;28;20129;-85
2023/04/21 07:24:43;;;;;;;26.30;10.40;;;5.80;99.90;;;;;;5003469;28;20056;-83
2023/04/21 07:27:08;;;;;;;29.05;11.23;;;5.90;99.90;;;;;;5002854;28;20041;-85
2023/04/21 07:29:34;;;;;;;22.65;10.40;;;5.90;99.90;;;;;;5002697;28;20093;-85
2023/04/21 07:31:59;;;;;;;23.15;11.02;;;5.90;99.90;;;;;;5002418;28;20042;-85
2023/04/21 07:34:25;;;;;;;21.30;12.13;;;6.00;99.90;;;;;;5002975;28;20026;-85
2023/04/21 07:36:51;;;;;;;21.15;11.27;;;6.10;99.90;;;;;;5002667;28;20505;-85
2023/04/21 07:39:16;;;;;;;24.67;12.45;;;6.30;99.90;;;;;;5002346;28;20034;-85
2023/04/21 07:41:42;;;;;;;27.33;12.23;;;6.30;99.90;;;;;;5002121;28;20014;-85
2023/04/21 07:44:08;;;;;;;25.23;13.50;;;6.40;99.90;;;;;;5002547;28;20034;-85
2023/04/21 07:46:33;;;;;;;28.20;12.57;;;6.50;99.90;;;;;;5002368;28;20030;-85
2023/04/21 07:48:59;;;;;;;29.67;13.07;;;6.50;99.90;;;;;;5001526;28;20362;-86
2023/04/21 07:51:26;;;;;;;27.00;12.73;;;6.50;99.90;;;;;;5001862;28;20030;-86
2023/04/21 07:53:52;;;;;;;24.02;12.15;;;6.60;99.90;;;;;;5002529;28;20378;-85
2023/04/21 07:56:18;;;;;;;26.77;12.93;;;6.80;99.90;;;;;;5001519;28;20061;-85
2023/04/21 07:58:44;;;;;;;27.95;13.88;;;6.90;99.90;;;;;;5002292;28;20047;-85
2023/04/21 08:01:09;;;;;;;26.40;13.77;;;7.10;99.90;;;;;;5001567;28;20030;-86
2023/04/21 08:03:35;;;;;;;23.65;13.55;;;7.30;99.90;;;;;;5001659;28;20114;-85
2023/04/21 08:06:01;;;;;;;23.75;12.90;;;7.40;99.90;;;;;;5002508;28;20030;-86
2023/04/21 08:08:27;;;;;;;27.00;14.02;;;7.60;99.90;;;;;;5002900;28;20117;-86
2023/04/21 08:10:53;;;;;;;26.90;14.00;;;7.80;99.90;;;;;;5002039;28;20031;-85
2023/04/21 08:13:20;;;;;;;31.05;15.40;;;8.10;99.90;;;;;;5001993;28;20038;-85
2023/04/21 08:15:46;;;;;;;27.17;14.10;;;8.10;99.90;;;;;;5002461;28;20370;-85
2023/04/21 08:18:11;;;;;;;23.40;13.27;;;8.10;99.90;;;;;;5002742;28;20042;-85
2023/04/21 08:20:37;;;;;;;26.50;13.98;;;8.10;99.90;;;;;;5001780;28;20097;-85
2023/04/21 08:23:02;;;;;;;27.70;14.45;;;8.30;99.90;;;;;;5001880;28;20057;-85
2023/04/21 08:25:28;;;;;;;24.73;13.07;;;8.40;99.90;;;;;;5002144;28;20029;-86
2023/04/21 08:27:53;;;;;;;22.55;12.32;;;8.50;99.90;;;;;;5001998;28;20058;-86
2023/04/21 08:30:19;;;;;;;29.90;14.88;;;8.60;99.90;;;;;;5002774;28;20375;-86
2023/04/21 08:32:45;;;;;;;26.50;14.43;;;8.90;99.90;;;;;;5001716;28;20038;-86
2023/04/21 08:35:11;;;;;;;25.98;13.90;;;9.00;99.90;;;;;;5002909;28;20042;-86
2023/04/21 08:37:39;;;;;;;27.50;14.63;;;8.90;99.90;;;;;;5002292;28;20039;-87
2023/04/21 08:40:05;;;;;;;24.75;14.23;;;8.90;99.90;;;;;;5002835;28;20067;-86
2023/04/21 08:42:32;;;;;;;32.65;16.58;;;9.10;99.90;;;;;;5001800;28;20034;-86
2023/04/21 08:44:58;;;;;;;28.88;16.17;;;9.20;99.90;;;;;;5001339;28;20054;-86
2023/04/21 08:47:24;;;;;;;28.25;14.60;;;9.40;99.90;;;;;;5001871;28;20459;-86
2023/04/21 08:49:50;;;;;;;27.52;13.50;;;9.40;99.90;;;;;;5006267;28;20034;-86
2023/04/21 08:52:17;;;;;;;28.70;14.88;;;9.30;99.90;;;;;;5006088;28;20455;-86
2023/04/21 08:54:43;;;;;;;28.55;16.00;;;9.30;99.90;;;;;;5007218;28;20070;-86
2023/04/21 08:57:08;;;;;;;28.98;14.70;;;9.50;99.90;;;;;;5006723;28;20030;-86
2023/04/21 08:59:34;;;;;;;35.63;17.45;;;9.70;99.90;;;;;;5006470;28;20057;-86
2023/04/21 09:02:13;;;;;;;27.00;14.57;;;9.90;99.90;;;;;;5005636;28;20042;-87
2023/04/21 09:04:40;;;;;;;31.00;15.98;;;9.70;99.90;;;;;;5006387;28;20117;-86
2023/04/21 09:07:07;;;;;;;26.95;14.68;;;9.80;99.90;;;;;;5005949;28;20033;-86
2023/04/21 09:09:50;;;;;;;33.58;16.80;;;9.80;99.90;;;;;;5005643;28;20471;-87
2023/04/21 09:12:16;;;;;;;30.88;14.40;;;10.00;99.90;;;;;;5005803;28;20117;-86
2023/04/21 09:14:42;;;;;;;31.77;14.65;;;10.00;99.90;;;;;;5004874;28;20041;-86
2023/04/21 09:17:07;;;;;;;33.70;16.10;;;10.00;99.90;;;;;;5003765;28;20034;-87
2023/04/21 09:19:33;;;;;;;32.40;15.20;;;10.20;99.90;;;;;;5003602;28;20524;-87
2023/04/21 09:22:03;;;;;;;34.17;15.88;;;10.30;99.90;;;;;;5003665;28;20026;-87
2023/04/21 09:24:29;;;;;;;26.40;14.40;;;10.50;99.90;;;;;;5003832;28;20166;-87
2023/04/21 09:26:55;;;;;;;31.23;15.13;;;10.70;99.90;;;;;;5003883;28;20084;-87
2023/04/21 09:29:24;;;;;;;28.10;14.80;;;10.60;99.90;;;;;;5003234;28;20034;-87
2023/04/21 09:31:51;;;;;;;28.95;15.30;;;10.70;99.90;;;;;;5003129;28;20052;-88
2023/04/21 09:34:23;;;;;;;22.77;13.30;;;11.00;99.90;;;;;;5011529;28;20038;-88
2023/04/21 09:37:01;;;;;;;23.55;14.52;;;11.50;99.90;;;;;;5011248;28;20125;-89
2023/04/21 09:39:31;;;;;;;20.95;12.77;;;11.80;99.90;;;;;;5010565;28;20038;-89
2023/04/21 09:41:57;;;;;;;24.05;12.70;;;12.00;99.90;;;;;;5006230;28;20034;-88
2023/04/21 09:44:27;;;;;;;16.92;11.20;;;11.80;99.90;;;;;;5005279;28;20041;-89
2023/04/21 09:47:03;;;;;;;18.02;10.57;;;11.80;99.90;;;;;;5004376;28;20038;-88
2023/04/21 09:49:33;;;;;;;20.67;10.95;;;11.80;99.90;;;;;;5004758;28;20483;-87
2023/04/21 09:52:01;;;;;;;21.65;12.93;;;11.80;99.90;;;;;;5004388;28;20054;-89
2023/04/21 09:54:30;;;;;;;21.85;13.00;;;12.00;99.90;;;;;;5004159;28;20041;-90
2023/04/21 09:57:02;;;;;;;20.98;12.90;;;11.80;99.90;;;;;;5004475;28;20129;-89
2023/04/21 09:59:35;;;;;;;18.23;11.25;;;11.80;99.90;;;;;;5004216;28;20091;-88
2023/04/21 10:02:05;;;;;;;17.33;10.70;;;12.00;99.90;;;;;;5003999;28;20036;-88
2023/04/21 10:04:32;;;;;;;17.63;11.20;;;12.30;99.90;;;;;;5004284;28;20038;-90
2023/04/21 10:07:01;;;;;;;20.83;11.90;;;12.50;99.90;;;;;;5004047;28;20039;-89
2023/04/21 10:09:35;;;;;;;18.63;11.25;;;12.60;99.90;;;;;;5003931;28;20022;-89
2023/04/21 10:12:02;;;;;;;17.42;10.57;;;12.70;99.90;;;;;;5003588;28;20006;-89
2023/04/21 10:14:28;;;;;;;15.75;10.93;;;12.40;99.90;;;;;;5004376;28;20065;-88
2023/04/21 10:17:12;;;;;;;19.20;10.18;;;12.40;99.90;;;;;;5004091;28;20382;-89
2023/04/21 10:19:50;;;;;;;19.17;11.23;;;12.70;99.90;;;;;;5004021;28;20037;-88
2023/04/21 10:22:25;;;;;;;;;;;12.80;99.90;;;;;;5004650;28;20058;-89
2023/04/21 10:24:55;;;;;;;17.13;10.65;;;12.70;99.90;;;;;;5004486;28;20295;-89
2023/04/21 10:27:41;;;;;;;18.52;11.55;;;12.70;99.90;;;;;;5004708;28;20034;-88
2023/04/21 10:30:21;;;;;;;17.83;11.38;;;12.70;99.90;;;;;;5004199;28;20038;-89
2023/04/21 10:32:47;;;;;;;19.58;11.70;;;13.00;99.90;;;;;;5003499;28;20065;-90
2023/04/21 10:35:22;;;;;;;19.23;13.45;;;12.90;99.90;;;;;;5003499;28;20034;-88
2023/04/21 10:37:50;;;;;;;19.13;11.75;;;13.00;99.90;;;;;;5004069;28;20049;-90
2023/04/21 10:40:35;;;;;;;19.63;11.05;;;12.90;99.90;;;;;;5003635;28;20026;-89
2023/04/21 10:43:04;;;;;;;21.83;13.15;;;12.90;99.90;;;;;;5004057;28;20475;-89
2023/04/21 10:45:30;;;;;;;22.63;13.10;;;12.90;99.90;;;;;;5003625;28;20061;-89
2023/04/21 10:48:00;;;;;;;20.02;12.77;;;13.10;99.90;;;;;;5003978;28;20045;-88
2023/04/21 10:50:30;;;;;;;20.27;12.02;;;13.00;99.90;;;;;;5002804;28;20034;-90
2023/04/21 10:53:10;;;;;;;20.10;11.90;;;13.10;99.90;;;;;;5002240;28;20029;-89
2023/04/21 10:55:36;;;;;;;21.17;12.82;;;13.30;99.90;;;;;;5003654;28;20085;-89
2023/04/21 10:58:04;;;;;;;21.25;12.52;;;13.30;99.90;;;;;;5003469;28;20121;-89
2023/04/21 11:00:31;;;;;;;20.85;12.75;;;13.30;99.90;;;;;;5003477;28;20061;-89
2023/04/21 11:03:05;;;;;;;17.95;11.55;;;13.40;99.90;;;;;;5001625;28;20073;-90
2023/04/21 11:05:39;;;;;;;20.95;12.45;;;13.30;99.90;;;;;;5003347;28;20007;-89
2023/04/21 11:08:05;;;;;;;18.40;11.50;;;13.50;99.90;;;;;;5003370;28;20026;-89
2023/04/21 11:10:41;;;;;;;18.55;10.93;;;13.50;99.90;;;;;;5003539;28;20027;-89
2023/04/21 11:13:07;;;;;;;19.95;11.80;;;13.60;99.90;;;;;;5003979;28;20030;-88
2023/04/21 11:15:33;;;;;;;18.23;11.57;;;13.80;99.90;;;;;;5003041;28;20479;-88
2023/04/21 11:17:58;;;;;;;18.15;11.23;;;13.80;99.90;;;;;;5003118;28;20042;-88
2023/04/21 11:20:24;;;;;;;19.40;11.82;;;13.80;99.90;;;;;;5002062;28;20113;-89
2023/04/21 11:22:52;;;;;;;18.17;11.38;;;13.90;99.90;;;;;;5003015;28;20073;-88
2023/04/21 11:25:17;;;;;;;17.27;9.73;;;13.90;99.90;;;;;;5004557;28;20046;-88
2023/04/21 11:27:55;;;;;;;18.90;10.52;;;14.00;99.90;;;;;;5003876;28;20038;-89
2023/04/21 11:30:31;;;;;;;20.48;12.77;;;14.20;99.90;;;;;;5004748;28;20050;-88
2023/04/21 11:32:56;;;;;;;17.27;12.18;;;14.20;99.90;;;;;;5006974;28;20035;-89
2023/04/21 11:35:22;;;;;;;20.90;12.60;;;14.20;99.90;;;;;;5007878;28;20042;-88
2023/04/21 11:37:50;;;;;;;21.80;12.32;;;14.10;99.90;;;;;;5009804;28;20038;-87
2023/04/21 11:40:16;;;;;;;;;;;14.00;99.90;;;;;;5008587;28;20121;-88
2023/04/21 11:42:42;;;;;;;20.42;11.77;;;14.10;99.90;;;;;;5002841;28;19933;-88
2023/04/21 11:45:15;;;;;;;18.88;11.18;;;14.30;99.90;;;;;;5005387;28;20033;-87
2023/04/21 11:47:40;;;;;;;17.90;12.30;;;14.30;99.90;;;;;;5002895;28;20026;-86
2023/04/21 11:50:06;;;;;;;21.02;12.13;;;14.20;99.90;;;;;;5001590;28;20118;-86
2023/04/21 11:52:36;;;;;;;16.88;11.13;;;14.10;99.90;;;;;;5003270;28;20033;-86
2023/04/21 11:55:02;;;;;;;19.48;12.73;;;14.20;99.90;;;;;;5001929;28;20090;-86
2023/04/21 11:57:31;;;;;;;17.33;11.27;;;14.30;99.90;;;;;;5002168;28;20177;-86
2023/04/21 12:00:02;;;;;;;16.85;10.77;;;14.20;99.90;;;;;;5002700;28;20031;-86
2023/04/21 12:02:31;;;;;;;15.43;10.07;;;14.20;99.90;;;;;;5001778;28;20038;-86
2023/04/21 12:05:03;;;;;;;19.70;12.45;;;14.10;99.90;;;;;;5002373;28;20035;-85
2023/04/21 12:07:37;;;;;;;16.50;11.68;;;14.20;99.90;;;;;;5001329;28;20034;-86
2023/04/21 12:10:11;;;;;;;16.05;9.77;;;14.40;99.90;;;;;;5001954;28;20026;-86
2023/04/21 12:12:38;;;;;;;20.20;13.23;;;14.40;99.90;;;;;;5002432;28;20117;-87
2023/04/21 12:15:05;;;;;;;17.50;11.15;;;14.60;99.90;;;;;;5002017;28;20018;-86
2023/04/21 12:17:42;;;;;;;20.30;12.23;;;14.60;99.90;;;;;;5002244;28;20049;-85
2023/04/21 12:20:08;;;;;;;16.83;11.68;;;14.80;99.90;;;;;;5002782;28;20035;-86
2023/04/21 12:22:34;;;;;;;19.20;12.48;;;14.90;99.90;;;;;;5003818;28;20074;-86
2023/04/21 12:25:00;;;;;;;18.10;11.30;;;15.00;99.90;;;;;;5006024;28;20026;-86
2023/04/21 12:27:26;;;;;;;17.90;10.68;;;15.10;99.90;;;;;;5005737;28;20038;-85
2023/04/21 12:29:52;;;;;;;14.52;9.30;;;15.30;99.90;;;;;;5006067;28;20085;-86
2023/04/21 12:32:17;;;;;;;13.68;8.93;;;15.20;99.90;;;;;;5005421;28;20046;-85
2023/04/21 12:34:43;;;;;;;15.80;9.20;;;15.20;99.90;;;;;;5005922;28;20018;-86